Terminal Aerodrome Forecast
Issued by NWS

Home | Current Version | Previous Version | Text Only | Print | Product List | Glossary On
Versions: 1 2 3 4 5 6 7 8 9 10 11 12 13 14 15 16 17 18 19 20
000
FTUS46 KSEW 161700
TAFSEA
TAF
KSEA 161720Z 1618/1724 29007KT P6SM SCT011 BKN100
      TEMPO 1618/1619 BKN011
     FM162000 22007KT P6SM SCT040 BKN120
     FM171000 18004KT P6SM SCT022 BKN100
      TEMPO 1712/1715 BKN022
     FM171500 18005KT P6SM SCT020 BKN070
     FM172000 25007KT P6SM VCSH SCT025 OVC070=

USA.gov is the U.S. government's official web portal to all federal, state and local government web resources and services.